Weather at Insch

Public forecast

Using degrees Celsius for public forecast. Weather courtesy of forecast.io.

Closest aviation weather report (METAR) to Insch

Closest report is Aberdeen Dyce Airport, 16.0 nm (29.6 km) ESE. Retrieved 2021/07/28 00:20 UTC (9 minutes ago):

EGPD 280020Z AUTO 10007KT 7000 OVC003/// //////CB 16/16 Q1004 TEMPO 4000 BR

Closest aviation forecast (TAF) to Insch

Closest forecast is Aberdeen Dyce Airport, 16.0 nm (29.6 km) ESE. Retrieved 2021-07-28 00:00 UTC (29 minutes ago):

TAF EGPD 272258Z 2800/2824 10005KT 9999 SCT002 BKN010 TEMPO 2800/2808 5000 BR BKN002 PROB40 TEMPO 2800/2808 4000 SHRA TEMPO 2808/2817 5000 RA SHRA BKN005 PROB40 TEMPO 2808/2817 3000 +SHRAGS BKN003 PROB40 TEMPO 2817/2824 5000 RA SHRA BKN012